<?xml version="1.0" encoding="UTF-8" standalone="no" ?>
<gpx xmlns="http://www.topografix.com/GPX/1/1" xmlns:xsi="http://www.w3.org/2001/XMLSchema-instance" xsi:schemaLocation="http://www.topografix.com/GPX/1/1 http://www.topografix.com/GPX/1/1/gpx.xsd" version="1.1" creator="VisuGPX - https://www.visugpx.com">
  <metadata>
    <name>Téléphérique du Carciara</name>
    <desc><![CDATA[Téléphérique du Carciara]]></desc>
  </metadata>
  <wpt lat="41.78045" lon="9.25164">
    <ele>623.3</ele>
    <name><![CDATA[PF1]]></name>
    <type><![CDATA[telecabine]]></type>
  </wpt>
  <wpt lat="41.77749" lon="9.25619">
    <ele>601.4</ele>
    <name><![CDATA[PF3 Crête Vangone di a Neve]]></name>
    <type><![CDATA[telecabine]]></type>
  </wpt>
  <wpt lat="41.75502" lon="9.27917">
    <ele>396.3</ele>
    <name><![CDATA[PF6 Punta di Mela]]></name>
    <type><![CDATA[telecabine]]></type>
  </wpt>
  <wpt lat="41.78043" lon="9.25164">
    <ele>623</ele>
    <name><![CDATA[PF1 caseddi Aragali]]></name>
    <type><![CDATA[telecabine]]></type>
  </wpt>
  <wpt lat="41.77002" lon="9.26813">
    <ele>467.9</ele>
    <name><![CDATA[PF5 Piton Peralzone]]></name>
    <type><![CDATA[telecabine]]></type>
  </wpt>
  <wpt lat="41.78043" lon="9.25164">
    <ele>623</ele>
    <name><![CDATA[PF1 caseddi Aragali]]></name>
    <type><![CDATA[telecabine]]></type>
  </wpt>
  <wpt lat="41.77597" lon="9.2586">
    <ele>549.4</ele>
    <name><![CDATA[PF4 Sortie brèche amont]]></name>
    <type><![CDATA[telecabine]]></type>
  </wpt>
  <wpt lat="41.77874" lon="9.25425">
    <ele>620.6</ele>
    <name><![CDATA[PF2 PF oubliée]]></name>
    <type><![CDATA[telecabine]]></type>
  </wpt>
  <trk>
    <name><![CDATA[Explo. Peru 25/09/2025 Patrice]]></name>
    <extensions>
      <line xmlns="http://www.topografix.com/GPX/gpx_style/0/2">
        <color>880088</color>
        <opacity>1</opacity>
        <width>5</width>
      </line>
    </extensions>
    <trkseg>
      <trkpt lat="41.75999" lon="9.27226">
        <ele>356</ele>
        <time>2025-09-25T07:04:05Z</time>
      </trkpt>
      <trkpt lat="41.76006" lon="9.2722">
        <ele>356</ele>
        <time>2025-09-25T07:04:12Z</time>
      </trkpt>
      <trkpt lat="41.76016" lon="9.27216">
        <ele>355</ele>
        <time>2025-09-25T07:04:20Z</time>
      </trkpt>
      <trkpt lat="41.76022" lon="9.27213">
        <ele>355</ele>
        <time>2025-09-25T07:04:26Z</time>
      </trkpt>
      <trkpt lat="41.76026" lon="9.27215">
        <ele>355</ele>
        <time>2025-09-25T07:04:30Z</time>
      </trkpt>
      <trkpt lat="41.76043" lon="9.27223">
        <ele>361</ele>
        <time>2025-09-25T07:04:53Z</time>
      </trkpt>
      <trkpt lat="41.76048" lon="9.27228">
        <ele>363</ele>
        <time>2025-09-25T07:05:04Z</time>
      </trkpt>
      <trkpt lat="41.76057" lon="9.27227">
        <ele>364</ele>
        <time>2025-09-25T07:05:15Z</time>
      </trkpt>
      <trkpt lat="41.76066" lon="9.27236">
        <ele>369</ele>
        <time>2025-09-25T07:05:41Z</time>
      </trkpt>
      <trkpt lat="41.76069" lon="9.27241">
        <ele>369</ele>
        <time>2025-09-25T07:05:53Z</time>
      </trkpt>
      <trkpt lat="41.76073" lon="9.27243">
        <ele>371</ele>
        <time>2025-09-25T07:06:05Z</time>
      </trkpt>
      <trkpt lat="41.76079" lon="9.27246">
        <ele>374</ele>
        <time>2025-09-25T07:06:17Z</time>
      </trkpt>
      <trkpt lat="41.76085" lon="9.27248">
        <ele>375</ele>
        <time>2025-09-25T07:06:25Z</time>
      </trkpt>
      <trkpt lat="41.76091" lon="9.2725">
        <ele>375</ele>
        <time>2025-09-25T07:06:32Z</time>
      </trkpt>
      <trkpt lat="41.76095" lon="9.27251">
        <ele>375</ele>
        <time>2025-09-25T07:06:39Z</time>
      </trkpt>
      <trkpt lat="41.761" lon="9.27251">
        <ele>376</ele>
        <time>2025-09-25T07:06:45Z</time>
      </trkpt>
      <trkpt lat="41.76103" lon="9.27256">
        <ele>379</ele>
        <time>2025-09-25T07:07:03Z</time>
      </trkpt>
      <trkpt lat="41.76108" lon="9.27258">
        <ele>382</ele>
        <time>2025-09-25T07:07:15Z</time>
      </trkpt>
      <trkpt lat="41.76112" lon="9.27266">
        <ele>383</ele>
        <time>2025-09-25T07:07:27Z</time>
      </trkpt>
      <trkpt lat="41.76113" lon="9.27276">
        <ele>386</ele>
        <time>2025-09-25T07:07:39Z</time>
      </trkpt>
      <trkpt lat="41.76117" lon="9.27284">
        <ele>386</ele>
        <time>2025-09-25T07:07:57Z</time>
      </trkpt>
      <trkpt lat="41.76123" lon="9.27291">
        <ele>388</ele>
        <time>2025-09-25T07:08:10Z</time>
      </trkpt>
      <trkpt lat="41.76127" lon="9.27297">
        <ele>390</ele>
        <time>2025-09-25T07:08:22Z</time>
      </trkpt>
      <trkpt lat="41.76134" lon="9.27299">
        <ele>391</ele>
        <time>2025-09-25T07:08:34Z</time>
      </trkpt>
      <trkpt lat="41.76141" lon="9.27306">
        <ele>394</ele>
        <time>2025-09-25T07:08:58Z</time>
      </trkpt>
      <trkpt lat="41.76144" lon="9.27316">
        <ele>394</ele>
        <time>2025-09-25T07:09:09Z</time>
      </trkpt>
      <trkpt lat="41.76147" lon="9.27324">
        <ele>395</ele>
        <time>2025-09-25T07:09:21Z</time>
      </trkpt>
      <trkpt lat="41.76158" lon="9.27338">
        <ele>397</ele>
        <time>2025-09-25T07:09:45Z</time>
      </trkpt>
      <trkpt lat="41.76164" lon="9.27348">
        <ele>396</ele>
        <time>2025-09-25T07:10:00Z</time>
      </trkpt>
      <trkpt lat="41.76161" lon="9.27353">
        <ele>399</ele>
        <time>2025-09-25T07:10:12Z</time>
      </trkpt>
      <trkpt lat="41.76165" lon="9.27358">
        <ele>400</ele>
        <time>2025-09-25T07:11:11Z</time>
      </trkpt>
      <trkpt lat="41.76163" lon="9.27367">
        <ele>401</ele>
        <time>2025-09-25T07:11:28Z</time>
      </trkpt>
      <trkpt lat="41.76162" lon="9.27374">
        <ele>403</ele>
        <time>2025-09-25T07:11:39Z</time>
      </trkpt>
      <trkpt lat="41.76166" lon="9.27378">
        <ele>403</ele>
        <time>2025-09-25T07:11:45Z</time>
      </trkpt>
      <trkpt lat="41.76175" lon="9.27388">
        <ele>405</ele>
        <time>2025-09-25T07:12:15Z</time>
      </trkpt>
      <trkpt lat="41.7618" lon="9.27389">
        <ele>406</ele>
        <time>2025-09-25T07:12:33Z</time>
      </trkpt>
      <trkpt lat="41.76184" lon="9.27393">
        <ele>406</ele>
        <time>2025-09-25T07:12:45Z</time>
      </trkpt>
      <trkpt lat="41.76187" lon="9.27398">
        <ele>406</ele>
        <time>2025-09-25T07:12:57Z</time>
      </trkpt>
      <trkpt lat="41.76191" lon="9.27401">
        <ele>407</ele>
        <time>2025-09-25T07:13:09Z</time>
      </trkpt>
      <trkpt lat="41.76191" lon="9.27408">
        <ele>408</ele>
        <time>2025-09-25T07:13:33Z</time>
      </trkpt>
      <trkpt lat="41.76193" lon="9.27412">
        <ele>411</ele>
        <time>2025-09-25T07:14:44Z</time>
      </trkpt>
      <trkpt lat="41.76192" lon="9.27419">
        <ele>414</ele>
        <time>2025-09-25T07:14:56Z</time>
      </trkpt>
      <trkpt lat="41.76191" lon="9.27427">
        <ele>420</ele>
        <time>2025-09-25T07:15:20Z</time>
      </trkpt>
      <trkpt lat="41.76187" lon="9.27431">
        <ele>422</ele>
        <time>2025-09-25T07:16:06Z</time>
      </trkpt>
      <trkpt lat="41.76184" lon="9.27437">
        <ele>425</ele>
        <time>2025-09-25T07:16:35Z</time>
      </trkpt>
      <trkpt lat="41.7618" lon="9.2744">
        <ele>430</ele>
        <time>2025-09-25T07:18:10Z</time>
      </trkpt>
      <trkpt lat="41.76175" lon="9.27439">
        <ele>430</ele>
        <time>2025-09-25T07:18:28Z</time>
      </trkpt>
      <trkpt lat="41.76171" lon="9.27444">
        <ele>436</ele>
        <time>2025-09-25T07:19:55Z</time>
      </trkpt>
      <trkpt lat="41.7617" lon="9.2745">
        <ele>438</ele>
        <time>2025-09-25T07:21:30Z</time>
      </trkpt>
      <trkpt lat="41.76165" lon="9.27452">
        <ele>441</ele>
        <time>2025-09-25T07:22:24Z</time>
      </trkpt>
      <trkpt lat="41.7616" lon="9.27452">
        <ele>442</ele>
        <time>2025-09-25T07:23:24Z</time>
      </trkpt>
      <trkpt lat="41.76156" lon="9.27455">
        <ele>443</ele>
        <time>2025-09-25T07:24:03Z</time>
      </trkpt>
      <trkpt lat="41.76151" lon="9.27457">
        <ele>439</ele>
        <time>2025-09-25T07:28:02Z</time>
      </trkpt>
      <trkpt lat="41.76147" lon="9.27456">
        <ele>438</ele>
        <time>2025-09-25T07:28:32Z</time>
      </trkpt>
      <trkpt lat="41.76141" lon="9.27454">
        <ele>436</ele>
        <time>2025-09-25T07:29:25Z</time>
      </trkpt>
      <trkpt lat="41.76138" lon="9.2746">
        <ele>437</ele>
        <time>2025-09-25T07:29:43Z</time>
      </trkpt>
      <trkpt lat="41.76134" lon="9.27464">
        <ele>438</ele>
        <time>2025-09-25T07:30:02Z</time>
      </trkpt>
      <trkpt lat="41.76129" lon="9.27467">
        <ele>440</ele>
        <time>2025-09-25T07:30:25Z</time>
      </trkpt>
      <trkpt lat="41.76128" lon="9.27473">
        <ele>442</ele>
        <time>2025-09-25T07:30:49Z</time>
      </trkpt>
      <trkpt lat="41.76123" lon="9.27477">
        <ele>445</ele>
        <time>2025-09-25T07:31:09Z</time>
      </trkpt>
      <trkpt lat="41.76123" lon="9.27483">
        <ele>445</ele>
        <time>2025-09-25T07:32:30Z</time>
      </trkpt>
      <trkpt lat="41.76118" lon="9.27485">
        <ele>448</ele>
        <time>2025-09-25T07:33:06Z</time>
      </trkpt>
      <trkpt lat="41.76113" lon="9.27487">
        <ele>446</ele>
        <time>2025-09-25T07:34:05Z</time>
      </trkpt>
      <trkpt lat="41.76108" lon="9.27485">
        <ele>445</ele>
        <time>2025-09-25T07:34:16Z</time>
      </trkpt>
      <trkpt lat="41.76102" lon="9.27489">
        <ele>444</ele>
        <time>2025-09-25T07:34:26Z</time>
      </trkpt>
      <trkpt lat="41.76095" lon="9.2749">
        <ele>445</ele>
        <time>2025-09-25T07:34:38Z</time>
      </trkpt>
      <trkpt lat="41.76089" lon="9.27493">
        <ele>446</ele>
        <time>2025-09-25T07:35:20Z</time>
      </trkpt>
      <trkpt lat="41.76083" lon="9.27494">
        <ele>447</ele>
        <time>2025-09-25T07:35:44Z</time>
      </trkpt>
      <trkpt lat="41.76076" lon="9.27496">
        <ele>447</ele>
        <time>2025-09-25T07:36:02Z</time>
      </trkpt>
      <trkpt lat="41.76072" lon="9.27497">
        <ele>448</ele>
        <time>2025-09-25T07:36:35Z</time>
      </trkpt>
      <trkpt lat="41.76068" lon="9.27497">
        <ele>448</ele>
        <time>2025-09-25T07:37:10Z</time>
      </trkpt>
      <trkpt lat="41.76064" lon="9.27492">
        <ele>445</ele>
        <time>2025-09-25T07:37:52Z</time>
      </trkpt>
      <trkpt lat="41.76064" lon="9.27484">
        <ele>442</ele>
        <time>2025-09-25T07:38:04Z</time>
      </trkpt>
      <trkpt lat="41.76062" lon="9.27489">
        <ele>444</ele>
        <time>2025-09-25T07:45:20Z</time>
      </trkpt>
      <trkpt lat="41.76065" lon="9.27495">
        <ele>445</ele>
        <time>2025-09-25T07:45:32Z</time>
      </trkpt>
      <trkpt lat="41.76064" lon="9.27503">
        <ele>447</ele>
        <time>2025-09-25T07:45:50Z</time>
      </trkpt>
      <trkpt lat="41.76062" lon="9.27508">
        <ele>449</ele>
        <time>2025-09-25T07:47:48Z</time>
      </trkpt>
      <trkpt lat="41.76057" lon="9.2751">
        <ele>449</ele>
        <time>2025-09-25T07:48:18Z</time>
      </trkpt>
      <trkpt lat="41.76051" lon="9.27512">
        <ele>447</ele>
        <time>2025-09-25T07:48:36Z</time>
      </trkpt>
      <trkpt lat="41.76047" lon="9.27516">
        <ele>448</ele>
        <time>2025-09-25T07:52:35Z</time>
      </trkpt>
      <trkpt lat="41.76043" lon="9.27518">
        <ele>445</ele>
        <time>2025-09-25T07:55:20Z</time>
      </trkpt>
      <trkpt lat="41.76039" lon="9.27522">
        <ele>447</ele>
        <time>2025-09-25T07:57:24Z</time>
      </trkpt>
      <trkpt lat="41.76035" lon="9.27525">
        <ele>447</ele>
        <time>2025-09-25T07:57:53Z</time>
      </trkpt>
      <trkpt lat="41.76032" lon="9.27529">
        <ele>445</ele>
        <time>2025-09-25T07:58:47Z</time>
      </trkpt>
      <trkpt lat="41.76029" lon="9.27533">
        <ele>444</ele>
        <time>2025-09-25T08:00:50Z</time>
      </trkpt>
      <trkpt lat="41.76025" lon="9.27536">
        <ele>445</ele>
        <time>2025-09-25T08:04:22Z</time>
      </trkpt>
      <trkpt lat="41.76019" lon="9.27538">
        <ele>444</ele>
        <time>2025-09-25T08:05:05Z</time>
      </trkpt>
      <trkpt lat="41.76015" lon="9.27541">
        <ele>445</ele>
        <time>2025-09-25T08:06:22Z</time>
      </trkpt>
      <trkpt lat="41.76012" lon="9.27545">
        <ele>445</ele>
        <time>2025-09-25T08:07:39Z</time>
      </trkpt>
      <trkpt lat="41.76008" lon="9.27547">
        <ele>446</ele>
        <time>2025-09-25T08:11:31Z</time>
      </trkpt>
      <trkpt lat="41.76004" lon="9.2755">
        <ele>445</ele>
        <time>2025-09-25T08:14:28Z</time>
      </trkpt>
      <trkpt lat="41.76001" lon="9.27554">
        <ele>444</ele>
        <time>2025-09-25T08:17:37Z</time>
      </trkpt>
      <trkpt lat="41.75999" lon="9.2756">
        <ele>446</ele>
        <time>2025-09-25T08:19:28Z</time>
      </trkpt>
      <trkpt lat="41.76003" lon="9.27563">
        <ele>449</ele>
        <time>2025-09-25T08:22:08Z</time>
      </trkpt>
      <trkpt lat="41.76005" lon="9.27567">
        <ele>449</ele>
        <time>2025-09-25T08:24:01Z</time>
      </trkpt>
      <trkpt lat="41.76005" lon="9.27566">
        <ele>452</ele>
        <time>2025-09-25T08:28:00Z</time>
      </trkpt>
      <trkpt lat="41.76001" lon="9.27561">
        <ele>448</ele>
        <time>2025-09-25T08:28:35Z</time>
      </trkpt>
      <trkpt lat="41.76002" lon="9.27553">
        <ele>446</ele>
        <time>2025-09-25T08:29:27Z</time>
      </trkpt>
      <trkpt lat="41.76008" lon="9.27551">
        <ele>445</ele>
        <time>2025-09-25T08:29:39Z</time>
      </trkpt>
      <trkpt lat="41.76012" lon="9.27547">
        <ele>445</ele>
        <time>2025-09-25T08:30:09Z</time>
      </trkpt>
      <trkpt lat="41.76016" lon="9.27543">
        <ele>447</ele>
        <time>2025-09-25T08:31:01Z</time>
      </trkpt>
      <trkpt lat="41.76021" lon="9.2754">
        <ele>449</ele>
        <time>2025-09-25T08:31:25Z</time>
      </trkpt>
      <trkpt lat="41.76027" lon="9.27538">
        <ele>445</ele>
        <time>2025-09-25T08:31:42Z</time>
      </trkpt>
      <trkpt lat="41.7603" lon="9.27532">
        <ele>444</ele>
        <time>2025-09-25T08:32:00Z</time>
      </trkpt>
      <trkpt lat="41.76034" lon="9.2753">
        <ele>446</ele>
        <time>2025-09-25T08:32:12Z</time>
      </trkpt>
      <trkpt lat="41.76038" lon="9.27525">
        <ele>444</ele>
        <time>2025-09-25T08:32:36Z</time>
      </trkpt>
      <trkpt lat="41.76042" lon="9.27521">
        <ele>445</ele>
        <time>2025-09-25T08:33:05Z</time>
      </trkpt>
      <trkpt lat="41.76044" lon="9.27516">
        <ele>444</ele>
        <time>2025-09-25T08:33:16Z</time>
      </trkpt>
      <trkpt lat="41.76049" lon="9.27515">
        <ele>447</ele>
        <time>2025-09-25T08:34:27Z</time>
      </trkpt>
      <trkpt lat="41.76053" lon="9.27512">
        <ele>448</ele>
        <time>2025-09-25T08:35:49Z</time>
      </trkpt>
      <trkpt lat="41.7606" lon="9.27509">
        <ele>446</ele>
        <time>2025-09-25T08:36:19Z</time>
      </trkpt>
      <trkpt lat="41.76064" lon="9.27504">
        <ele>446</ele>
        <time>2025-09-25T08:36:31Z</time>
      </trkpt>
      <trkpt lat="41.76066" lon="9.27497">
        <ele>446</ele>
        <time>2025-09-25T08:36:48Z</time>
      </trkpt>
      <trkpt lat="41.76063" lon="9.2749">
        <ele>443</ele>
        <time>2025-09-25T08:37:00Z</time>
      </trkpt>
      <trkpt lat="41.76067" lon="9.27482">
        <ele>442</ele>
        <time>2025-09-25T08:37:13Z</time>
      </trkpt>
      <trkpt lat="41.76069" lon="9.27477">
        <ele>441</ele>
        <time>2025-09-25T08:37:49Z</time>
      </trkpt>
      <trkpt lat="41.76076" lon="9.27476">
        <ele>439</ele>
        <time>2025-09-25T08:38:01Z</time>
      </trkpt>
      <trkpt lat="41.76081" lon="9.27472">
        <ele>438</ele>
        <time>2025-09-25T08:38:13Z</time>
      </trkpt>
      <trkpt lat="41.76081" lon="9.27465">
        <ele>435</ele>
        <time>2025-09-25T08:38:31Z</time>
      </trkpt>
      <trkpt lat="41.76081" lon="9.27457">
        <ele>434</ele>
        <time>2025-09-25T08:38:49Z</time>
      </trkpt>
      <trkpt lat="41.76084" lon="9.27441">
        <ele>425</ele>
        <time>2025-09-25T08:39:36Z</time>
      </trkpt>
      <trkpt lat="41.76081" lon="9.27433">
        <ele>423</ele>
        <time>2025-09-25T08:39:54Z</time>
      </trkpt>
      <trkpt lat="41.76083" lon="9.27426">
        <ele>419</ele>
        <time>2025-09-25T08:40:06Z</time>
      </trkpt>
      <trkpt lat="41.76077" lon="9.27418">
        <ele>419</ele>
        <time>2025-09-25T08:40:30Z</time>
      </trkpt>
      <trkpt lat="41.76077" lon="9.27412">
        <ele>415</ele>
        <time>2025-09-25T08:40:54Z</time>
      </trkpt>
      <trkpt lat="41.76077" lon="9.27409">
        <ele>414</ele>
        <time>2025-09-25T08:41:17Z</time>
      </trkpt>
      <trkpt lat="41.76078" lon="9.27403">
        <ele>412</ele>
        <time>2025-09-25T08:41:33Z</time>
      </trkpt>
      <trkpt lat="41.76076" lon="9.27397">
        <ele>411</ele>
        <time>2025-09-25T08:42:08Z</time>
      </trkpt>
      <trkpt lat="41.76071" lon="9.27393">
        <ele>409</ele>
        <time>2025-09-25T08:42:26Z</time>
      </trkpt>
      <trkpt lat="41.76074" lon="9.27386">
        <ele>409</ele>
        <time>2025-09-25T08:42:44Z</time>
      </trkpt>
      <trkpt lat="41.76073" lon="9.2738">
        <ele>407</ele>
        <time>2025-09-25T08:42:56Z</time>
      </trkpt>
      <trkpt lat="41.76074" lon="9.27373">
        <ele>403</ele>
        <time>2025-09-25T08:43:08Z</time>
      </trkpt>
      <trkpt lat="41.76077" lon="9.27366">
        <ele>401</ele>
        <time>2025-09-25T08:43:20Z</time>
      </trkpt>
      <trkpt lat="41.7608" lon="9.27361">
        <ele>397</ele>
        <time>2025-09-25T08:43:43Z</time>
      </trkpt>
      <trkpt lat="41.76082" lon="9.27355">
        <ele>399</ele>
        <time>2025-09-25T08:44:01Z</time>
      </trkpt>
      <trkpt lat="41.76077" lon="9.27351">
        <ele>396</ele>
        <time>2025-09-25T08:44:48Z</time>
      </trkpt>
      <trkpt lat="41.76075" lon="9.27342">
        <ele>395</ele>
        <time>2025-09-25T08:45:06Z</time>
      </trkpt>
      <trkpt lat="41.76074" lon="9.27336">
        <ele>390</ele>
        <time>2025-09-25T08:45:31Z</time>
      </trkpt>
      <trkpt lat="41.76072" lon="9.2733">
        <ele>390</ele>
        <time>2025-09-25T08:45:43Z</time>
      </trkpt>
      <trkpt lat="41.76068" lon="9.27327">
        <ele>386</ele>
        <time>2025-09-25T08:46:01Z</time>
      </trkpt>
      <trkpt lat="41.76063" lon="9.27326">
        <ele>388</ele>
        <time>2025-09-25T08:46:25Z</time>
      </trkpt>
      <trkpt lat="41.76057" lon="9.27325">
        <ele>386</ele>
        <time>2025-09-25T08:46:42Z</time>
      </trkpt>
      <trkpt lat="41.76052" lon="9.27319">
        <ele>382</ele>
        <time>2025-09-25T08:46:54Z</time>
      </trkpt>
      <trkpt lat="41.76048" lon="9.27313">
        <ele>382</ele>
        <time>2025-09-25T08:47:06Z</time>
      </trkpt>
      <trkpt lat="41.76041" lon="9.27316">
        <ele>381</ele>
        <time>2025-09-25T08:47:37Z</time>
      </trkpt>
      <trkpt lat="41.7604" lon="9.27309">
        <ele>380</ele>
        <time>2025-09-25T08:47:44Z</time>
      </trkpt>
      <trkpt lat="41.76041" lon="9.27303">
        <ele>378</ele>
        <time>2025-09-25T08:47:58Z</time>
      </trkpt>
      <trkpt lat="41.76035" lon="9.27288">
        <ele>373</ele>
        <time>2025-09-25T08:48:35Z</time>
      </trkpt>
      <trkpt lat="41.76032" lon="9.27279">
        <ele>372</ele>
        <time>2025-09-25T08:48:48Z</time>
      </trkpt>
      <trkpt lat="41.76025" lon="9.27276">
        <ele>371</ele>
        <time>2025-09-25T08:49:05Z</time>
      </trkpt>
      <trkpt lat="41.76021" lon="9.27277">
        <ele>370</ele>
        <time>2025-09-25T08:49:10Z</time>
      </trkpt>
      <trkpt lat="41.7601" lon="9.2727">
        <ele>366</ele>
        <time>2025-09-25T08:49:29Z</time>
      </trkpt>
      <trkpt lat="41.76006" lon="9.27265">
        <ele>365</ele>
        <time>2025-09-25T08:49:37Z</time>
      </trkpt>
      <trkpt lat="41.76001" lon="9.27263">
        <ele>364</ele>
        <time>2025-09-25T08:49:49Z</time>
      </trkpt>
      <trkpt lat="41.75998" lon="9.27259">
        <ele>362</ele>
        <time>2025-09-25T08:50:12Z</time>
      </trkpt>
      <trkpt lat="41.75992" lon="9.27248">
        <ele>360</ele>
        <time>2025-09-25T08:50:42Z</time>
      </trkpt>
      <trkpt lat="41.75993" lon="9.27246">
        <ele>353</ele>
        <time>2025-09-25T08:51:26Z</time>
      </trkpt>
      <trkpt lat="41.75988" lon="9.27244">
        <ele>357</ele>
        <time>2025-09-25T08:52:23Z</time>
      </trkpt>
      <trkpt lat="41.75983" lon="9.27241">
        <ele>357</ele>
        <time>2025-09-25T08:52:36Z</time>
      </trkpt>
      <trkpt lat="41.75978" lon="9.27245">
        <ele>355</ele>
        <time>2025-09-25T08:52:40Z</time>
      </trkpt>
      <trkpt lat="41.75973" lon="9.2725">
        <ele>354</ele>
        <time>2025-09-25T08:52:43Z</time>
      </trkpt>
      <trkpt lat="41.7597" lon="9.27255">
        <ele>354</ele>
        <time>2025-09-25T08:52:45Z</time>
      </trkpt>
      <trkpt lat="41.75961" lon="9.27263">
        <ele>352</ele>
        <time>2025-09-25T08:52:50Z</time>
      </trkpt>
      <trkpt lat="41.75957" lon="9.27267">
        <ele>353</ele>
        <time>2025-09-25T08:52:53Z</time>
      </trkpt>
      <trkpt lat="41.75953" lon="9.2727">
        <ele>352</ele>
        <time>2025-09-25T08:52:56Z</time>
      </trkpt>
      <trkpt lat="41.75949" lon="9.27274">
        <ele>351</ele>
        <time>2025-09-25T08:52:59Z</time>
      </trkpt>
      <trkpt lat="41.75945" lon="9.27276">
        <ele>351</ele>
        <time>2025-09-25T08:53:02Z</time>
      </trkpt>
      <trkpt lat="41.75941" lon="9.27279">
        <ele>351</ele>
        <time>2025-09-25T08:53:05Z</time>
      </trkpt>
      <trkpt lat="41.75937" lon="9.27283">
        <ele>351</ele>
        <time>2025-09-25T08:53:08Z</time>
      </trkpt>
      <trkpt lat="41.75933" lon="9.27285">
        <ele>354</ele>
        <time>2025-09-25T08:53:12Z</time>
      </trkpt>
      <trkpt lat="41.75929" lon="9.27289">
        <ele>353</ele>
        <time>2025-09-25T08:53:16Z</time>
      </trkpt>
      <trkpt lat="41.75925" lon="9.27295">
        <ele>354</ele>
        <time>2025-09-25T08:53:20Z</time>
      </trkpt>
      <trkpt lat="41.75917" lon="9.27302">
        <ele>353</ele>
        <time>2025-09-25T08:53:28Z</time>
      </trkpt>
      <trkpt lat="41.7591" lon="9.27306">
        <ele>353</ele>
        <time>2025-09-25T08:53:37Z</time>
      </trkpt>
      <trkpt lat="41.75905" lon="9.27306">
        <ele>352</ele>
        <time>2025-09-25T08:53:41Z</time>
      </trkpt>
      <trkpt lat="41.75897" lon="9.27309">
        <ele>348</ele>
        <time>2025-09-25T08:53:49Z</time>
      </trkpt>
      <trkpt lat="41.75892" lon="9.27311">
        <ele>348</ele>
        <time>2025-09-25T08:53:53Z</time>
      </trkpt>
      <trkpt lat="41.75888" lon="9.27313">
        <ele>348</ele>
        <time>2025-09-25T08:53:57Z</time>
      </trkpt>
      <trkpt lat="41.75879" lon="9.27317">
        <ele>348</ele>
        <time>2025-09-25T08:54:04Z</time>
      </trkpt>
      <trkpt lat="41.75874" lon="9.27318">
        <ele>346</ele>
        <time>2025-09-25T08:54:08Z</time>
      </trkpt>
      <trkpt lat="41.75869" lon="9.27318">
        <ele>346</ele>
        <time>2025-09-25T08:54:12Z</time>
      </trkpt>
      <trkpt lat="41.75864" lon="9.27321">
        <ele>346</ele>
        <time>2025-09-25T08:54:15Z</time>
      </trkpt>
      <trkpt lat="41.75856" lon="9.27326">
        <ele>345</ele>
        <time>2025-09-25T08:54:24Z</time>
      </trkpt>
      <trkpt lat="41.75852" lon="9.2733">
        <ele>345</ele>
        <time>2025-09-25T08:54:28Z</time>
      </trkpt>
      <trkpt lat="41.75848" lon="9.27331">
        <ele>346</ele>
        <time>2025-09-25T08:54:31Z</time>
      </trkpt>
      <trkpt lat="41.75842" lon="9.27331">
        <ele>346</ele>
        <time>2025-09-25T08:54:35Z</time>
      </trkpt>
      <trkpt lat="41.75837" lon="9.27332">
        <ele>346</ele>
        <time>2025-09-25T08:54:39Z</time>
      </trkpt>
      <trkpt lat="41.75831" lon="9.27335">
        <ele>345</ele>
        <time>2025-09-25T08:54:45Z</time>
      </trkpt>
      <trkpt lat="41.75826" lon="9.27337">
        <ele>345</ele>
        <time>2025-09-25T08:54:49Z</time>
      </trkpt>
      <trkpt lat="41.75821" lon="9.27337">
        <ele>344</ele>
        <time>2025-09-25T08:54:53Z</time>
      </trkpt>
      <trkpt lat="41.75816" lon="9.27335">
        <ele>344</ele>
        <time>2025-09-25T08:54:57Z</time>
      </trkpt>
      <trkpt lat="41.75812" lon="9.27332">
        <ele>344</ele>
        <time>2025-09-25T08:55:01Z</time>
      </trkpt>
      <trkpt lat="41.75809" lon="9.27329">
        <ele>344</ele>
        <time>2025-09-25T08:55:04Z</time>
      </trkpt>
      <trkpt lat="41.75805" lon="9.27325">
        <ele>343</ele>
        <time>2025-09-25T08:55:07Z</time>
      </trkpt>
      <trkpt lat="41.75801" lon="9.27321">
        <ele>344</ele>
        <time>2025-09-25T08:55:11Z</time>
      </trkpt>
      <trkpt lat="41.75797" lon="9.27316">
        <ele>343</ele>
        <time>2025-09-25T08:55:15Z</time>
      </trkpt>
      <trkpt lat="41.75792" lon="9.27316">
        <ele>343</ele>
        <time>2025-09-25T08:55:19Z</time>
      </trkpt>
      <trkpt lat="41.75782" lon="9.27322">
        <ele>340</ele>
        <time>2025-09-25T08:55:26Z</time>
      </trkpt>
      <trkpt lat="41.75778" lon="9.27327">
        <ele>341</ele>
        <time>2025-09-25T08:55:30Z</time>
      </trkpt>
      <trkpt lat="41.75762" lon="9.27353">
        <ele>339</ele>
        <time>2025-09-25T08:55:48Z</time>
      </trkpt>
      <trkpt lat="41.75758" lon="9.27356">
        <ele>340</ele>
        <time>2025-09-25T08:55:52Z</time>
      </trkpt>
      <trkpt lat="41.75754" lon="9.27359">
        <ele>340</ele>
        <time>2025-09-25T08:55:56Z</time>
      </trkpt>
      <trkpt lat="41.75749" lon="9.27361">
        <ele>341</ele>
        <time>2025-09-25T08:56:01Z</time>
      </trkpt>
      <trkpt lat="41.75745" lon="9.27366">
        <ele>344</ele>
        <time>2025-09-25T08:56:05Z</time>
      </trkpt>
      <trkpt lat="41.7574" lon="9.27369">
        <ele>344</ele>
        <time>2025-09-25T08:56:09Z</time>
      </trkpt>
      <trkpt lat="41.75737" lon="9.27373">
        <ele>343</ele>
        <time>2025-09-25T08:56:13Z</time>
      </trkpt>
      <trkpt lat="41.75733" lon="9.2738">
        <ele>343</ele>
        <time>2025-09-25T08:56:20Z</time>
      </trkpt>
      <trkpt lat="41.75729" lon="9.27384">
        <ele>341</ele>
        <time>2025-09-25T08:56:25Z</time>
      </trkpt>
      <trkpt lat="41.75728" lon="9.27378">
        <ele>338</ele>
        <time>2025-09-25T08:56:36Z</time>
      </trkpt>
      <trkpt lat="41.75723" lon="9.27372">
        <ele>338</ele>
        <time>2025-09-25T08:56:47Z</time>
      </trkpt>
      <trkpt lat="41.75721" lon="9.27367">
        <ele>338</ele>
        <time>2025-09-25T08:56:53Z</time>
      </trkpt>
      <trkpt lat="41.75718" lon="9.27362">
        <ele>338</ele>
        <time>2025-09-25T08:56:57Z</time>
      </trkpt>
      <trkpt lat="41.75713" lon="9.27354">
        <ele>337</ele>
        <time>2025-09-25T08:57:05Z</time>
      </trkpt>
      <trkpt lat="41.7571" lon="9.27342">
        <ele>339</ele>
        <time>2025-09-25T08:57:13Z</time>
      </trkpt>
      <trkpt lat="41.75707" lon="9.27338">
        <ele>339</ele>
        <time>2025-09-25T08:57:17Z</time>
      </trkpt>
      <trkpt lat="41.75699" lon="9.27336">
        <ele>337</ele>
        <time>2025-09-25T08:57:25Z</time>
      </trkpt>
      <trkpt lat="41.75696" lon="9.27342">
        <ele>338</ele>
        <time>2025-09-25T08:57:39Z</time>
        <extensions>
          <visugpx:TrkExtension xmlns:visugpx="https://www.visugpx.com/editgpx/">
            <visugpx:node>1</visugpx:node>
            </visugpx:TrkExtension>
        </extensions>
      </trkpt>
    </trkseg>
  </trk>
</gpx>